Mc Entire JNGB Airport
KMMT : rendu visible

Aérodrome :











RETROUVEZ-NOUS SUR...

 
LOGIN :

S'inscrire | Disclaimer

   EN    FR    IT 

 









Légende :    VFR   VFR Marginal   IFR   IFR Intensif   IFR Très Intensif
Visi : 
Plafond : 
>= 8 km
>= 3000ft
5 à 8 km
1000 à 3000 ft
1500m à 5 km
500 à 1000 ft
800 à 1500m
200 à 500 ft
< 800m
< 200 ft
Symboles :   Orages  Brouillard  Fortes neiges  Fortes précipitations  Vent > 20 kt






- Altitude de l'aérodrome : 254 ft


KMMT - Mc Entire JNGB

DERNIER METAR :
  • 311656Z 05009KT 7SM FEW040 SCT090 SCT200 27/18 A3008 RMK AO2A SLP187 T02710181 $

METARs EXPIRÉS :
  • 311556Z 03009KT 10SM SCT050 SCT130 BKN250 27/16 A3008 RMK AO2A SLP187 T02670160 $
  • 311458Z 02010KT 10SM FEW050 FEW100 SCT250 27/16 A3007 RMK SLP183 T02650155 52014 $

TAF TAF KMMT
Valide du 31 à 15h jusqu'au 01 à 21h UTC


311500Z 3115/0121 04012KT 9999 SCT030 QNH2999INS
BECMG 0100/0101 06006KT 9999 SCT040 QNH3010INS TX31/3120Z TN15/0110Z
FIR KZJX / Amérique du Nord



MET'MAP, la Météo Aéronautique d'un coup d'oeil ! - Copyright ORBIFLY Décembre 2007 - Disclaimer

ORBIFLY MET'MAP TEAM :

Programmation & Développement : Alexandra Zaïnal
Sur une idée originale de : Baudouin d'Aumeries
Assistance à la programmation : Marc-Olivier Méhu
Soutien technique & logistique : Manuel Goepfert

Contact : metmap@orbifly.com




SOURCES & CREDITS :

   NOAA       Earth
Advisory